Terminal Aerodrome Forecast
Issued by NWS

Home | Current Version | Previous Version | Text Only | Print | Product List | Glossary On
Versions: 1 2 3 4 5 6 7 8 9 10 11 12 13
000
FTUS43 KBIS 251409 AAA
TAFMOT
TAF AMD
KMOT 251409Z 2514/2612 VRB04KT P6SM SCT110
     FM252100 06006KT P6SM VCSH SCT060
     FM260100 22005KT P6SM SCT140=

USA.gov is the U.S. government's official web portal to all federal, state and local government web resources and services.